sensor_id;sensor_type;location;lat;lon;timestamp;P1;durP1;ratioP1;P2;durP2;ratioP2
5752;SDS011;2901;42.140;24.760;2022-07-04T00:00:04;10.00;;;3.00;;
5752;SDS011;2901;42.140;24.760;2022-07-04T00:02:31;4.20;;;2.05;;
5752;SDS011;2901;42.140;24.760;2022-07-04T00:04:56;4.22;;;2.00;;
5752;SDS011;2901;42.140;24.760;2022-07-04T00:07:21;9.50;;;2.03;;
5752;SDS011;2901;42.140;24.760;2022-07-04T00:09:47;4.97;;;2.03;;
5752;SDS011;2901;42.140;24.760;2022-07-04T00:12:12;2.55;;;2.42;;
5752;SDS011;2901;42.140;24.760;2022-07-04T00:14:38;2.45;;;1.92;;
5752;SDS011;2901;42.140;24.760;2022-07-04T00:17:03;3.53;;;1.73;;
5752;SDS011;2901;42.140;24.760;2022-07-04T00:19:29;2.42;;;1.65;;
5752;SDS011;2901;42.140;24.760;2022-07-04T00:21:54;2.53;;;1.63;;
5752;SDS011;2901;42.140;24.760;2022-07-04T00:24:20;9.15;;;2.75;;
5752;SDS011;2901;42.140;24.760;2022-07-04T00:26:45;4.75;;;2.15;;
5752;SDS011;2901;42.140;24.760;2022-07-04T00:29:10;3.80;;;2.28;;
5752;SDS011;2901;42.140;24.760;2022-07-04T00:31:36;2.58;;;1.70;;
5752;SDS011;2901;42.140;24.760;2022-07-04T00:34:01;2.90;;;1.65;;
5752;SDS011;2901;42.140;24.760;2022-07-04T00:36:27;2.40;;;2.20;;
5752;SDS011;2901;42.140;24.760;2022-07-04T00:38:52;2.72;;;1.80;;
5752;SDS011;2901;42.140;24.760;2022-07-04T00:41:18;5.55;;;1.98;;
5752;SDS011;2901;42.140;24.760;2022-07-04T00:43:43;2.03;;;1.92;;
5752;SDS011;2901;42.140;24.760;2022-07-04T00:46:08;2.10;;;1.92;;
5752;SDS011;2901;42.140;24.760;2022-07-04T00:48:34;4.47;;;2.15;;
5752;SDS011;2901;42.140;24.760;2022-07-04T00:50:59;6.65;;;2.50;;
5752;SDS011;2901;42.140;24.760;2022-07-04T00:53:25;5.15;;;1.95;;
5752;SDS011;2901;42.140;24.760;2022-07-04T00:55:51;4.68;;;2.28;;
5752;SDS011;2901;42.140;24.760;2022-07-04T00:58:21;4.32;;;2.10;;
5752;SDS011;2901;42.140;24.760;2022-07-04T01:00:48;4.25;;;1.88;;
5752;SDS011;2901;42.140;24.760;2022-07-04T01:03:14;7.93;;;2.83;;
5752;SDS011;2901;42.140;24.760;2022-07-04T01:05:40;7.97;;;2.15;;
5752;SDS011;2901;42.140;24.760;2022-07-04T01:08:07;3.13;;;2.22;;
5752;SDS011;2901;42.140;24.760;2022-07-04T01:10:33;2.78;;;2.25;;
5752;SDS011;2901;42.140;24.760;2022-07-04T01:12:58;2.97;;;2.65;;
5752;SDS011;2901;42.140;24.760;2022-07-04T01:15:24;7.32;;;2.63;;
5752;SDS011;2901;42.140;24.760;2022-07-04T01:17:50;7.38;;;2.22;;
5752;SDS011;2901;42.140;24.760;2022-07-04T01:20:15;7.40;;;2.28;;
5752;SDS011;2901;42.140;24.760;2022-07-04T01:22:41;2.63;;;2.40;;
5752;SDS011;2901;42.140;24.760;2022-07-04T01:25:07;7.63;;;2.15;;
5752;SDS011;2901;42.140;24.760;2022-07-04T01:27:33;4.55;;;2.33;;
5752;SDS011;2901;42.140;24.760;2022-07-04T01:29:59;2.63;;;2.38;;
5752;SDS011;2901;42.140;24.760;2022-07-04T01:32:24;4.60;;;2.47;;
5752;SDS011;2901;42.140;24.760;2022-07-04T01:34:50;5.50;;;2.33;;
5752;SDS011;2901;42.140;24.760;2022-07-04T01:37:15;4.35;;;2.13;;
5752;SDS011;2901;42.140;24.760;2022-07-04T01:39:41;3.03;;;2.83;;
5752;SDS011;2901;42.140;24.760;2022-07-04T01:42:07;6.68;;;2.50;;
5752;SDS011;2901;42.140;24.760;2022-07-04T01:44:32;4.18;;;2.45;;
5752;SDS011;2901;42.140;24.760;2022-07-04T01:46:58;3.20;;;2.55;;
5752;SDS011;2901;42.140;24.760;2022-07-04T01:49:23;3.00;;;2.20;;
5752;SDS011;2901;42.140;24.760;2022-07-04T01:51:49;7.72;;;2.85;;
5752;SDS011;2901;42.140;24.760;2022-07-04T01:54:15;9.10;;;2.95;;
5752;SDS011;2901;42.140;24.760;2022-07-04T01:56:41;3.70;;;2.33;;
5752;SDS011;2901;42.140;24.760;2022-07-04T01:59:07;2.45;;;2.25;;
5752;SDS011;2901;42.140;24.760;2022-07-04T02:01:33;5.10;;;2.35;;
5752;SDS011;2901;42.140;24.760;2022-07-04T02:04:00;2.15;;;2.05;;
5752;SDS011;2901;42.140;24.760;2022-07-04T02:06:27;5.78;;;2.38;;
5752;SDS011;2901;42.140;24.760;2022-07-04T02:08:54;4.97;;;2.60;;
5752;SDS011;2901;42.140;24.760;2022-07-04T02:11:38;4.47;;;2.30;;
5752;SDS011;2901;42.140;24.760;2022-07-04T02:14:22;3.13;;;2.33;;
5752;SDS011;2901;42.140;24.760;2022-07-04T02:16:48;2.90;;;2.08;;
5752;SDS011;2901;42.140;24.760;2022-07-04T02:19:13;3.22;;;3.03;;
5752;SDS011;2901;42.140;24.760;2022-07-04T02:21:39;4.80;;;2.53;;
5752;SDS011;2901;42.140;24.760;2022-07-04T02:24:04;8.85;;;2.40;;
5752;SDS011;2901;42.140;24.760;2022-07-04T02:26:30;4.55;;;2.25;;
5752;SDS011;2901;42.140;24.760;2022-07-04T02:28:56;5.88;;;2.50;;
5752;SDS011;2901;42.140;24.760;2022-07-04T02:31:22;7.03;;;2.42;;
5752;SDS011;2901;42.140;24.760;2022-07-04T02:33:47;4.22;;;2.50;;
5752;SDS011;2901;42.140;24.760;2022-07-04T02:36:13;2.83;;;1.85;;
5752;SDS011;2901;42.140;24.760;2022-07-04T02:38:38;4.30;;;2.75;;
5752;SDS011;2901;42.140;24.760;2022-07-04T02:41:03;6.65;;;2.33;;
5752;SDS011;2901;42.140;24.760;2022-07-04T02:43:29;5.20;;;3.20;;
5752;SDS011;2901;42.140;24.760;2022-07-04T02:45:54;3.83;;;2.90;;
5752;SDS011;2901;42.140;24.760;2022-07-04T02:48:20;2.70;;;2.58;;
5752;SDS011;2901;42.140;24.760;2022-07-04T02:50:45;8.57;;;2.50;;
5752;SDS011;2901;42.140;24.760;2022-07-04T02:53:10;5.53;;;2.70;;
5752;SDS011;2901;42.140;24.760;2022-07-04T02:55:36;4.70;;;2.58;;
5752;SDS011;2901;42.140;24.760;2022-07-04T02:58:01;7.15;;;2.60;;
5752;SDS011;2901;42.140;24.760;2022-07-04T03:00:27;2.75;;;2.55;;
5752;SDS011;2901;42.140;24.760;2022-07-04T03:02:53;5.95;;;2.83;;
5752;SDS011;2901;42.140;24.760;2022-07-04T03:05:19;3.80;;;2.60;;
5752;SDS011;2901;42.140;24.760;2022-07-04T03:07:44;6.03;;;2.55;;
5752;SDS011;2901;42.140;24.760;2022-07-04T03:10:10;2.60;;;2.40;;
5752;SDS011;2901;42.140;24.760;2022-07-04T03:12:35;6.65;;;2.78;;
5752;SDS011;2901;42.140;24.760;2022-07-04T03:15:01;3.22;;;2.70;;
5752;SDS011;2901;42.140;24.760;2022-07-04T03:17:27;3.05;;;2.67;;
5752;SDS011;2901;42.140;24.760;2022-07-04T03:19:54;12.18;;;3.72;;
5752;SDS011;2901;42.140;24.760;2022-07-04T03:22:19;5.43;;;3.45;;
5752;SDS011;2901;42.140;24.760;2022-07-04T03:24:44;6.72;;;3.60;;
5752;SDS011;2901;42.140;24.760;2022-07-04T03:27:10;5.43;;;3.20;;
5752;SDS011;2901;42.140;24.760;2022-07-04T03:29:35;4.78;;;3.25;;
5752;SDS011;2901;42.140;24.760;2022-07-04T03:32:00;5.93;;;3.55;;
5752;SDS011;2901;42.140;24.760;2022-07-04T03:34:26;4.45;;;2.88;;
5752;SDS011;2901;42.140;24.760;2022-07-04T03:36:51;4.15;;;3.00;;
5752;SDS011;2901;42.140;24.760;2022-07-04T03:39:17;8.90;;;3.30;;
5752;SDS011;2901;42.140;24.760;2022-07-04T03:41:42;8.57;;;3.50;;
5752;SDS011;2901;42.140;24.760;2022-07-04T03:44:08;12.80;;;3.42;;
5752;SDS011;2901;42.140;24.760;2022-07-04T03:46:33;5.80;;;3.67;;
5752;SDS011;2901;42.140;24.760;2022-07-04T03:48:59;8.98;;;3.72;;
5752;SDS011;2901;42.140;24.760;2022-07-04T03:51:24;3.00;;;2.80;;
5752;SDS011;2901;42.140;24.760;2022-07-04T03:53:50;4.50;;;3.17;;
5752;SDS011;2901;42.140;24.760;2022-07-04T03:56:16;3.40;;;3.15;;
5752;SDS011;2901;42.140;24.760;2022-07-04T03:58:41;7.63;;;2.83;;
5752;SDS011;2901;42.140;24.760;2022-07-04T04:01:07;3.53;;;3.15;;
5752;SDS011;2901;42.140;24.760;2022-07-04T04:03:35;3.20;;;2.95;;
5752;SDS011;2901;42.140;24.760;2022-07-04T04:06:19;3.45;;;2.83;;
5752;SDS011;2901;42.140;24.760;2022-07-04T04:08:45;8.52;;;2.72;;
5752;SDS011;2901;42.140;24.760;2022-07-04T04:11:10;2.40;;;2.05;;
5752;SDS011;2901;42.140;24.760;2022-07-04T04:13:36;7.50;;;3.03;;
5752;SDS011;2901;42.140;24.760;2022-07-04T04:16:01;3.75;;;3.00;;
5752;SDS011;2901;42.140;24.760;2022-07-04T04:18:27;7.38;;;2.92;;
5752;SDS011;2901;42.140;24.760;2022-07-04T04:20:52;4.60;;;2.83;;
5752;SDS011;2901;42.140;24.760;2022-07-04T04:23:17;3.08;;;2.78;;
5752;SDS011;2901;42.140;24.760;2022-07-04T04:25:43;7.07;;;2.63;;
5752;SDS011;2901;42.140;24.760;2022-07-04T04:28:08;6.70;;;3.40;;
5752;SDS011;2901;42.140;24.760;2022-07-04T04:30:33;6.13;;;2.75;;
5752;SDS011;2901;42.140;24.760;2022-07-04T04:32:59;5.00;;;3.80;;
5752;SDS011;2901;42.140;24.760;2022-07-04T04:35:25;6.38;;;2.67;;
5752;SDS011;2901;42.140;24.760;2022-07-04T04:37:50;4.57;;;2.83;;
5752;SDS011;2901;42.140;24.760;2022-07-04T04:40:16;6.20;;;2.65;;
5752;SDS011;2901;42.140;24.760;2022-07-04T04:42:42;6.22;;;3.03;;
5752;SDS011;2901;42.140;24.760;2022-07-04T04:45:08;16.48;;;3.38;;
5752;SDS011;2901;42.140;24.760;2022-07-04T04:47:34;14.30;;;3.17;;
5752;SDS011;2901;42.140;24.760;2022-07-04T04:49:59;6.50;;;3.28;;
5752;SDS011;2901;42.140;24.760;2022-07-04T04:52:25;3.40;;;2.75;;
5752;SDS011;2901;42.140;24.760;2022-07-04T04:54:51;4.63;;;3.22;;
5752;SDS011;2901;42.140;24.760;2022-07-04T04:57:17;5.70;;;3.40;;
5752;SDS011;2901;42.140;24.760;2022-07-04T04:59:42;4.85;;;2.90;;
5752;SDS011;2901;42.140;24.760;2022-07-04T05:02:08;3.80;;;3.50;;
5752;SDS011;2901;42.140;24.760;2022-07-04T05:04:34;5.45;;;3.72;;
5752;SDS011;2901;42.140;24.760;2022-07-04T05:06:59;6.65;;;3.53;;
5752;SDS011;2901;42.140;24.760;2022-07-04T05:09:25;19.58;;;3.78;;
5752;SDS011;2901;42.140;24.760;2022-07-04T05:11:50;9.23;;;3.67;;
5752;SDS011;2901;42.140;24.760;2022-07-04T05:14:16;9.60;;;3.40;;
5752;SDS011;2901;42.140;24.760;2022-07-04T05:16:42;5.40;;;3.45;;
5752;SDS011;2901;42.140;24.760;2022-07-04T05:19:07;8.05;;;3.22;;
5752;SDS011;2901;42.140;24.760;2022-07-04T05:21:33;3.30;;;3.00;;
5752;SDS011;2901;42.140;24.760;2022-07-04T05:23:58;5.80;;;2.78;;
5752;SDS011;2901;42.140;24.760;2022-07-04T05:26:24;7.57;;;3.83;;
5752;SDS011;2901;42.140;24.760;2022-07-04T05:28:50;7.25;;;3.08;;
5752;SDS011;2901;42.140;24.760;2022-07-04T05:31:16;10.27;;;3.05;;
5752;SDS011;2901;42.140;24.760;2022-07-04T05:33:41;3.88;;;3.47;;
5752;SDS011;2901;42.140;24.760;2022-07-04T05:36:07;9.65;;;2.95;;
5752;SDS011;2901;42.140;24.760;2022-07-04T05:38:32;3.55;;;3.08;;
5752;SDS011;2901;42.140;24.760;2022-07-04T05:40:58;7.40;;;2.80;;
5752;SDS011;2901;42.140;24.760;2022-07-04T05:43:23;7.43;;;2.85;;
5752;SDS011;2901;42.140;24.760;2022-07-04T05:45:50;2.85;;;2.72;;
5752;SDS011;2901;42.140;24.760;2022-07-04T05:48:16;8.93;;;2.60;;
5752;SDS011;2901;42.140;24.760;2022-07-04T05:50:41;6.70;;;3.33;;
5752;SDS011;2901;42.140;24.760;2022-07-04T05:53:07;4.45;;;2.63;;
5752;SDS011;2901;42.140;24.760;2022-07-04T05:55:32;6.07;;;2.80;;
5752;SDS011;2901;42.140;24.760;2022-07-04T05:57:59;4.93;;;3.03;;
5752;SDS011;2901;42.140;24.760;2022-07-04T06:00:25;6.00;;;3.17;;
5752;SDS011;2901;42.140;24.760;2022-07-04T06:02:50;4.93;;;2.90;;
5752;SDS011;2901;42.140;24.760;2022-07-04T06:05:15;6.43;;;2.90;;
5752;SDS011;2901;42.140;24.760;2022-07-04T06:07:41;5.47;;;2.90;;
5752;SDS011;2901;42.140;24.760;2022-07-04T06:10:06;9.23;;;3.20;;
5752;SDS011;2901;42.140;24.760;2022-07-04T06:12:32;6.63;;;3.05;;
5752;SDS011;2901;42.140;24.760;2022-07-04T06:14:58;14.30;;;3.08;;
5752;SDS011;2901;42.140;24.760;2022-07-04T06:17:23;5.78;;;2.90;;
5752;SDS011;2901;42.140;24.760;2022-07-04T06:19:49;5.15;;;2.47;;
5752;SDS011;2901;42.140;24.760;2022-07-04T06:22:14;4.47;;;2.85;;
5752;SDS011;2901;42.140;24.760;2022-07-04T06:24:40;5.65;;;2.60;;
5752;SDS011;2901;42.140;24.760;2022-07-04T06:27:05;2.05;;;1.95;;
5752;SDS011;2901;42.140;24.760;2022-07-04T06:29:31;11.30;;;3.30;;
5752;SDS011;2901;42.140;24.760;2022-07-04T06:31:56;4.30;;;2.17;;
5752;SDS011;2901;42.140;24.760;2022-07-04T06:34:22;4.57;;;2.17;;
5752;SDS011;2901;42.140;24.760;2022-07-04T06:37:05;2.92;;;2.47;;
5752;SDS011;2901;42.140;24.760;2022-07-04T06:39:31;6.63;;;2.42;;
5752;SDS011;2901;42.140;24.760;2022-07-04T06:41:56;3.25;;;2.92;;
5752;SDS011;2901;42.140;24.760;2022-07-04T06:44:22;11.23;;;2.72;;
5752;SDS011;2901;42.140;24.760;2022-07-04T06:46:48;2.60;;;2.40;;
5752;SDS011;2901;42.140;24.760;2022-07-04T06:49:13;3.63;;;2.72;;
5752;SDS011;2901;42.140;24.760;2022-07-04T06:51:39;3.22;;;2.50;;
5752;SDS011;2901;42.140;24.760;2022-07-04T06:54:04;4.32;;;2.83;;
5752;SDS011;2901;42.140;24.760;2022-07-04T06:56:30;4.22;;;2.50;;
5752;SDS011;2901;42.140;24.760;2022-07-04T06:58:56;4.00;;;2.53;;
5752;SDS011;2901;42.140;24.760;2022-07-04T07:01:21;2.97;;;2.55;;
5752;SDS011;2901;42.140;24.760;2022-07-04T07:03:47;5.63;;;2.42;;
5752;SDS011;2901;42.140;24.760;2022-07-04T07:06:12;5.95;;;2.80;;
5752;SDS011;2901;42.140;24.760;2022-07-04T07:08:38;2.45;;;2.08;;
5752;SDS011;2901;42.140;24.760;2022-07-04T07:11:03;3.28;;;2.17;;
5752;SDS011;2901;42.140;24.760;2022-07-04T07:13:41;3.97;;;2.45;;
5752;SDS011;2901;42.140;24.760;2022-07-04T07:16:08;3.17;;;2.95;;
5752;SDS011;2901;42.140;24.760;2022-07-04T07:18:34;5.22;;;2.40;;
5752;SDS011;2901;42.140;24.760;2022-07-04T07:21:00;6.90;;;2.85;;
5752;SDS011;2901;42.140;24.760;2022-07-04T07:23:25;5.65;;;2.30;;
5752;SDS011;2901;42.140;24.760;2022-07-04T07:25:50;7.30;;;5.78;;
5752;SDS011;2901;42.140;24.760;2022-07-04T07:28:16;9.68;;;8.73;;
5752;SDS011;2901;42.140;24.760;2022-07-04T07:30:41;9.75;;;3.78;;
5752;SDS011;2901;42.140;24.760;2022-07-04T07:33:07;4.30;;;3.28;;
5752;SDS011;2901;42.140;24.760;2022-07-04T07:35:32;9.00;;;2.67;;
5752;SDS011;2901;42.140;24.760;2022-07-04T07:37:57;6.15;;;3.50;;
5752;SDS011;2901;42.140;24.760;2022-07-04T07:40:23;3.20;;;2.42;;
5752;SDS011;2901;42.140;24.760;2022-07-04T07:42:48;7.50;;;3.03;;
5752;SDS011;2901;42.140;24.760;2022-07-04T07:45:15;6.07;;;2.53;;
5752;SDS011;2901;42.140;24.760;2022-07-04T07:47:40;2.75;;;2.65;;
5752;SDS011;2901;42.140;24.760;2022-07-04T07:50:06;4.18;;;2.55;;
5752;SDS011;2901;42.140;24.760;2022-07-04T07:52:32;6.72;;;2.97;;
5752;SDS011;2901;42.140;24.760;2022-07-04T07:54:57;3.40;;;2.58;;
5752;SDS011;2901;42.140;24.760;2022-07-04T07:57:23;4.78;;;2.97;;
5752;SDS011;2901;42.140;24.760;2022-07-04T07:59:48;4.70;;;2.40;;
5752;SDS011;2901;42.140;24.760;2022-07-04T08:02:13;6.82;;;3.30;;
5752;SDS011;2901;42.140;24.760;2022-07-04T08:04:39;5.47;;;2.95;;
5752;SDS011;2901;42.140;24.760;2022-07-04T08:07:08;7.05;;;2.90;;
5752;SDS011;2901;42.140;24.760;2022-07-04T08:09:36;4.75;;;2.70;;
5752;SDS011;2901;42.140;24.760;2022-07-04T08:12:03;5.53;;;3.40;;
5752;SDS011;2901;42.140;24.760;2022-07-04T08:14:30;2.97;;;2.65;;
5752;SDS011;2901;42.140;24.760;2022-07-04T08:16:56;2.65;;;2.53;;
5752;SDS011;2901;42.140;24.760;2022-07-04T08:19:23;2.83;;;2.65;;
5752;SDS011;2901;42.140;24.760;2022-07-04T08:21:49;5.97;;;2.65;;
5752;SDS011;2901;42.140;24.760;2022-07-04T08:24:15;3.33;;;3.13;;
5752;SDS011;2901;42.140;24.760;2022-07-04T08:26:41;8.15;;;3.28;;
5752;SDS011;2901;42.140;24.760;2022-07-04T08:29:19;3.47;;;3.08;;
5752;SDS011;2901;42.140;24.760;2022-07-04T08:31:46;2.78;;;2.65;;
5752;SDS011;2901;42.140;24.760;2022-07-04T08:34:12;3.70;;;3.28;;
5752;SDS011;2901;42.140;24.760;2022-07-04T08:36:38;6.40;;;2.92;;
5752;SDS011;2901;42.140;24.760;2022-07-04T08:39:03;4.93;;;2.92;;
5752;SDS011;2901;42.140;24.760;2022-07-04T08:41:30;6.30;;;3.10;;
5752;SDS011;2901;42.140;24.760;2022-07-04T08:44:01;2.63;;;2.53;;
5752;SDS011;2901;42.140;24.760;2022-07-04T08:46:27;4.88;;;3.15;;
5752;SDS011;2901;42.140;24.760;2022-07-04T08:48:54;3.83;;;2.72;;
5752;SDS011;2901;42.140;24.760;2022-07-04T08:51:25;4.15;;;2.45;;
5752;SDS011;2901;42.140;24.760;2022-07-04T08:54:09;2.95;;;2.60;;
5752;SDS011;2901;42.140;24.760;2022-07-04T08:56:54;8.80;;;2.40;;
5752;SDS011;2901;42.140;24.760;2022-07-04T08:59:39;7.00;;;2.42;;
5752;SDS011;2901;42.140;24.760;2022-07-04T09:02:05;2.67;;;2.55;;
5752;SDS011;2901;42.140;24.760;2022-07-04T09:04:31;3.00;;;2.80;;
5752;SDS011;2901;42.140;24.760;2022-07-04T09:06:57;6.72;;;2.55;;
5752;SDS011;2901;42.140;24.760;2022-07-04T09:09:23;3.33;;;2.70;;
5752;SDS011;2901;42.140;24.760;2022-07-04T09:11:49;3.60;;;2.00;;
5752;SDS011;2901;42.140;24.760;2022-07-04T09:14:15;4.53;;;2.50;;
5752;SDS011;2901;42.140;24.760;2022-07-04T09:16:40;4.32;;;1.92;;
5752;SDS011;2901;42.140;24.760;2022-07-04T09:19:09;4.38;;;1.80;;
5752;SDS011;2901;42.140;24.760;2022-07-04T09:21:44;3.42;;;1.85;;
5752;SDS011;2901;42.140;24.760;2022-07-04T09:24:10;3.00;;;2.10;;
5752;SDS011;2901;42.140;24.760;2022-07-04T09:26:36;2.53;;;1.83;;
5752;SDS011;2901;42.140;24.760;2022-07-04T09:29:06;2.40;;;2.20;;
5752;SDS011;2901;42.140;24.760;2022-07-04T09:31:31;2.38;;;2.05;;
5752;SDS011;2901;42.140;24.760;2022-07-04T09:36:30;4.57;;;2.15;;
5752;SDS011;2901;42.140;24.760;2022-07-04T09:39:14;2.58;;;2.47;;
5752;SDS011;2901;42.140;24.760;2022-07-04T09:44:26;2.72;;;2.53;;
5752;SDS011;2901;42.140;24.760;2022-07-04T09:50:00;2.05;;;1.85;;
5752;SDS011;2901;42.140;24.760;2022-07-04T09:52:28;2.85;;;2.03;;
5752;SDS011;2901;42.140;24.760;2022-07-04T09:54:58;3.17;;;2.58;;
5752;SDS011;2901;42.140;24.760;2022-07-04T09:57:24;3.58;;;2.20;;
5752;SDS011;2901;42.140;24.760;2022-07-04T09:59:50;3.92;;;2.45;;
5752;SDS011;2901;42.140;24.760;2022-07-04T10:02:16;2.25;;;2.08;;
5752;SDS011;2901;42.140;24.760;2022-07-04T10:12:55;7.13;;;2.55;;
5752;SDS011;2901;42.140;24.760;2022-07-04T10:15:22;4.03;;;2.28;;
5752;SDS011;2901;42.140;24.760;2022-07-04T10:17:48;2.70;;;2.15;;
5752;SDS011;2901;42.140;24.760;2022-07-04T10:20:13;4.38;;;2.88;;
5752;SDS011;2901;42.140;24.760;2022-07-04T10:22:39;5.32;;;2.25;;
5752;SDS011;2901;42.140;24.760;2022-07-04T10:25:06;8.93;;;2.50;;
5752;SDS011;2901;42.140;24.760;2022-07-04T10:27:33;4.18;;;2.47;;
5752;SDS011;2901;42.140;24.760;2022-07-04T10:30:00;4.15;;;2.30;;
5752;SDS011;2901;42.140;24.760;2022-07-04T10:32:28;3.53;;;2.42;;
5752;SDS011;2901;42.140;24.760;2022-07-04T10:34:55;2.75;;;2.40;;
5752;SDS011;2901;42.140;24.760;2022-07-04T10:37:20;2.38;;;1.85;;
5752;SDS011;2901;42.140;24.760;2022-07-04T10:39:46;2.95;;;2.08;;
5752;SDS011;2901;42.140;24.760;2022-07-04T10:42:25;3.22;;;2.20;;
5752;SDS011;2901;42.140;24.760;2022-07-04T10:44:51;16.30;;;4.22;;
5752;SDS011;2901;42.140;24.760;2022-07-04T10:47:24;5.20;;;2.58;;
5752;SDS011;2901;42.140;24.760;2022-07-04T10:49:52;3.22;;;2.67;;
5752;SDS011;2901;42.140;24.760;2022-07-04T10:52:17;9.18;;;2.83;;
5752;SDS011;2901;42.140;24.760;2022-07-04T10:54:43;6.05;;;2.28;;
5752;SDS011;2901;42.140;24.760;2022-07-04T11:02:21;4.57;;;2.47;;
5752;SDS011;2901;42.140;24.760;2022-07-04T11:04:52;2.70;;;2.50;;
5752;SDS011;2901;42.140;24.760;2022-07-04T11:07:23;2.85;;;2.65;;
5752;SDS011;2901;42.140;24.760;2022-07-04T11:18:01;4.10;;;2.25;;
5752;SDS011;2901;42.140;24.760;2022-07-04T11:20:29;6.28;;;2.58;;
5752;SDS011;2901;42.140;24.760;2022-07-04T11:23:10;2.83;;;2.63;;
5752;SDS011;2901;42.140;24.760;2022-07-04T11:25:41;4.35;;;2.67;;
5752;SDS011;2901;42.140;24.760;2022-07-04T11:28:21;8.77;;;3.15;;
5752;SDS011;2901;42.140;24.760;2022-07-04T11:30:48;8.93;;;3.45;;
5752;SDS011;2901;42.140;24.760;2022-07-04T11:33:16;3.00;;;2.25;;
5752;SDS011;2901;42.140;24.760;2022-07-04T11:35:43;6.60;;;2.33;;
5752;SDS011;2901;42.140;24.760;2022-07-04T11:38:09;3.67;;;2.42;;
5752;SDS011;2901;42.140;24.760;2022-07-04T11:40:44;5.25;;;2.67;;
5752;SDS011;2901;42.140;24.760;2022-07-04T11:43:28;2.50;;;2.30;;
5752;SDS011;2901;42.140;24.760;2022-07-04T11:46:13;7.65;;;2.13;;
5752;SDS011;2901;42.140;24.760;2022-07-04T11:48:39;4.05;;;2.28;;
5752;SDS011;2901;42.140;24.760;2022-07-04T11:51:15;2.65;;;2.33;;
5752;SDS011;2901;42.140;24.760;2022-07-04T11:53:41;4.03;;;2.55;;
5752;SDS011;2901;42.140;24.760;2022-07-04T11:56:06;3.00;;;2.25;;
5752;SDS011;2901;42.140;24.760;2022-07-04T11:58:41;4.53;;;2.10;;
5752;SDS011;2901;42.140;24.760;2022-07-04T12:01:08;3.55;;;2.50;;
5752;SDS011;2901;42.140;24.760;2022-07-04T12:03:35;6.65;;;2.55;;
5752;SDS011;2901;42.140;24.760;2022-07-04T12:06:03;2.95;;;2.70;;
5752;SDS011;2901;42.140;24.760;2022-07-04T12:08:31;2.83;;;2.60;;
5752;SDS011;2901;42.140;24.760;2022-07-04T12:10:56;2.72;;;2.53;;
5752;SDS011;2901;42.140;24.760;2022-07-04T12:13:22;4.32;;;2.47;;
5752;SDS011;2901;42.140;24.760;2022-07-04T12:15:48;2.40;;;2.08;;
5752;SDS011;2901;42.140;24.760;2022-07-04T12:18:23;2.25;;;2.15;;
5752;SDS011;2901;42.140;24.760;2022-07-04T12:20:54;2.42;;;2.22;;
5752;SDS011;2901;42.140;24.760;2022-07-04T12:23:21;2.33;;;2.05;;
5752;SDS011;2901;42.140;24.760;2022-07-04T12:25:48;2.45;;;2.28;;
5752;SDS011;2901;42.140;24.760;2022-07-04T12:28:16;2.08;;;1.98;;
5752;SDS011;2901;42.140;24.760;2022-07-04T12:33:14;4.63;;;2.35;;
5752;SDS011;2901;42.140;24.760;2022-07-04T12:35:44;5.30;;;2.40;;
5752;SDS011;2901;42.140;24.760;2022-07-04T12:41:08;2.50;;;2.30;;
5752;SDS011;2901;42.140;24.760;2022-07-04T12:48:49;4.65;;;2.22;;
5752;SDS011;2901;42.140;24.760;2022-07-04T12:51:19;4.93;;;2.40;;
5752;SDS011;2901;42.140;24.760;2022-07-04T12:53:46;4.22;;;2.10;;
5752;SDS011;2901;42.140;24.760;2022-07-04T12:58:54;2.50;;;1.92;;
5752;SDS011;2901;42.140;24.760;2022-07-04T13:01:20;1.95;;;1.70;;
5752;SDS011;2901;42.140;24.760;2022-07-04T13:03:46;2.90;;;2.30;;
5752;SDS011;2901;42.140;24.760;2022-07-04T13:06:11;2.00;;;1.80;;
5752;SDS011;2901;42.140;24.760;2022-07-04T13:08:36;2.10;;;2.00;;
5752;SDS011;2901;42.140;24.760;2022-07-04T13:11:02;15.75;;;2.92;;
5752;SDS011;2901;42.140;24.760;2022-07-04T13:13:46;5.85;;;2.05;;
5752;SDS011;2901;42.140;24.760;2022-07-04T13:16:11;2.08;;;1.98;;
5752;SDS011;2901;42.140;24.760;2022-07-04T13:18:37;7.15;;;2.45;;
5752;SDS011;2901;42.140;24.760;2022-07-04T13:21:02;2.20;;;2.10;;
5752;SDS011;2901;42.140;24.760;2022-07-04T13:23:28;2.40;;;2.28;;
5752;SDS011;2901;42.140;24.760;2022-07-04T13:25:53;3.75;;;2.05;;
5752;SDS011;2901;42.140;24.760;2022-07-04T13:28:18;2.35;;;1.75;;
5752;SDS011;2901;42.140;24.760;2022-07-04T13:30:44;2.10;;;1.90;;
5752;SDS011;2901;42.140;24.760;2022-07-04T13:33:09;1.92;;;1.63;;
5752;SDS011;2901;42.140;24.760;2022-07-04T13:35:35;3.13;;;1.98;;
5752;SDS011;2901;42.140;24.760;2022-07-04T13:38:00;3.92;;;2.08;;
5752;SDS011;2901;42.140;24.760;2022-07-04T13:40:26;5.45;;;2.20;;
5752;SDS011;2901;42.140;24.760;2022-07-04T13:42:51;2.40;;;2.17;;
5752;SDS011;2901;42.140;24.760;2022-07-04T13:45:23;2.28;;;2.05;;
5752;SDS011;2901;42.140;24.760;2022-07-04T13:47:49;7.63;;;2.15;;
5752;SDS011;2901;42.140;24.760;2022-07-04T13:50:14;2.20;;;2.10;;
5752;SDS011;2901;42.140;24.760;2022-07-04T13:52:40;3.53;;;1.85;;
5752;SDS011;2901;42.140;24.760;2022-07-04T13:55:05;6.63;;;1.75;;
5752;SDS011;2901;42.140;24.760;2022-07-04T13:57:31;3.40;;;2.05;;
5752;SDS011;2901;42.140;24.760;2022-07-04T13:59:57;3.80;;;2.05;;
5752;SDS011;2901;42.140;24.760;2022-07-04T14:02:22;2.22;;;2.13;;
5752;SDS011;2901;42.140;24.760;2022-07-04T14:04:48;5.43;;;2.80;;
5752;SDS011;2901;42.140;24.760;2022-07-04T14:07:13;2.67;;;1.70;;
5752;SDS011;2901;42.140;24.760;2022-07-04T14:09:39;2.55;;;1.95;;
5752;SDS011;2901;42.140;24.760;2022-07-04T14:12:04;2.30;;;2.20;;
5752;SDS011;2901;42.140;24.760;2022-07-04T14:14:30;6.70;;;2.45;;
5752;SDS011;2901;42.140;24.760;2022-07-04T14:16:55;2.67;;;2.55;;
5752;SDS011;2901;42.140;24.760;2022-07-04T14:19:21;3.20;;;3.00;;
5752;SDS011;2901;42.140;24.760;2022-07-04T14:21:47;1.83;;;1.67;;
5752;SDS011;2901;42.140;24.760;2022-07-04T14:24:13;4.20;;;2.40;;
5752;SDS011;2901;42.140;24.760;2022-07-04T14:26:39;2.72;;;1.92;;
5752;SDS011;2901;42.140;24.760;2022-07-04T14:29:07;2.40;;;2.20;;
5752;SDS011;2901;42.140;24.760;2022-07-04T14:31:32;1.60;;;1.50;;
5752;SDS011;2901;42.140;24.760;2022-07-04T14:33:58;2.00;;;1.90;;
5752;SDS011;2901;42.140;24.760;2022-07-04T14:36:23;2.85;;;2.45;;
5752;SDS011;2901;42.140;24.760;2022-07-04T14:38:48;4.00;;;2.67;;
5752;SDS011;2901;42.140;24.760;2022-07-04T14:41:14;2.67;;;2.10;;
5752;SDS011;2901;42.140;24.760;2022-07-04T14:43:40;4.70;;;1.98;;
5752;SDS011;2901;42.140;24.760;2022-07-04T14:46:07;3.75;;;1.83;;
5752;SDS011;2901;42.140;24.760;2022-07-04T14:48:33;1.80;;;1.70;;
5752;SDS011;2901;42.140;24.760;2022-07-04T14:50:59;5.60;;;1.90;;
5752;SDS011;2901;42.140;24.760;2022-07-04T14:53:25;4.28;;;1.80;;
5752;SDS011;2901;42.140;24.760;2022-07-04T14:55:50;4.47;;;2.00;;
5752;SDS011;2901;42.140;24.760;2022-07-04T14:58:16;3.25;;;2.17;;
5752;SDS011;2901;42.140;24.760;2022-07-04T15:00:41;1.77;;;1.70;;
5752;SDS011;2901;42.140;24.760;2022-07-04T15:03:07;1.85;;;1.75;;
5752;SDS011;2901;42.140;24.760;2022-07-04T15:05:32;1.70;;;1.60;;
5752;SDS011;2901;42.140;24.760;2022-07-04T15:07:57;3.92;;;1.60;;
5752;SDS011;2901;42.140;24.760;2022-07-04T15:10:23;1.95;;;1.85;;
5752;SDS011;2901;42.140;24.760;2022-07-04T15:12:49;1.90;;;1.80;;
5752;SDS011;2901;42.140;24.760;2022-07-04T15:15:14;3.92;;;1.92;;
5752;SDS011;2901;42.140;24.760;2022-07-04T15:17:40;4.45;;;2.00;;
5752;SDS011;2901;42.140;24.760;2022-07-04T15:20:07;2.08;;;1.80;;
5752;SDS011;2901;42.140;24.760;2022-07-04T15:22:51;4.78;;;1.70;;
5752;SDS011;2901;42.140;24.760;2022-07-04T15:25:35;3.30;;;2.30;;
5752;SDS011;2901;42.140;24.760;2022-07-04T15:28:01;2.40;;;2.30;;
5752;SDS011;2901;42.140;24.760;2022-07-04T15:30:27;2.08;;;1.98;;
5752;SDS011;2901;42.140;24.760;2022-07-04T15:32:52;2.33;;;2.00;;
5752;SDS011;2901;42.140;24.760;2022-07-04T15:35:17;3.92;;;1.88;;
5752;SDS011;2901;42.140;24.760;2022-07-04T15:37:43;6.75;;;2.10;;
5752;SDS011;2901;42.140;24.760;2022-07-04T15:40:09;4.50;;;2.65;;